Terminal Aerodrome Forecast
Issued by NWS Cleveland, OH

Home | Current Version | Previous Version | Graphics & Text | Print | Product List | Glossary On
Versions: 1 2 3 4 5 6 7 8 9 10 11 12 13 14 15 16 17 18 19 20
000
FTUS41 KCLE 182336
TAFYNG
TAF
KYNG 182336Z 1900/1924 30010KT P6SM BKN070
     FM190200 25006KT P6SM SCT070
     FM191100 23004KT P6SM BKN100
     FM191600 24007KT P6SM -SHRA VCTS BKN050CB
     FM192000 29007KT P6SM BKN070=

USA.gov is the U.S. government's official web portal to all federal, state and local government web resources and services.